Time;durP1;ratioP1;P1;durP2;ratioP2;P2;SDS_P1;SDS_P2;PMS_P1;PMS_P2;Temp;Humidity;BMP_temperature;BMP_pressure;BME280_temperature;BME280_humidity;BME280_pressure;Samples;Min_cycle;Max_cycle;Signal;HPM_P1;HPM_P2
2024/02/06 00:01:32;;;;;;;19.73;9.57;;;5.30;99.90;;;;;;485095;245;27596;-75
2024/02/06 00:03:34;;;;;;;31.48;11.25;;;5.30;99.90;;;;;;485070;245;27505;-72
2024/02/06 00:05:35;;;;;;;20.62;11.52;;;5.30;99.90;;;;;;484979;245;27529;-72
2024/02/06 00:07:36;;;;;;;24.85;12.25;;;5.20;99.90;;;;;;485069;245;27440;-72
2024/02/06 00:09:38;;;;;;;33.08;12.48;;;5.20;99.90;;;;;;485062;245;27579;-72
2024/02/06 00:11:39;;;;;;;22.52;11.50;;;5.20;99.90;;;;;;485017;245;27990;-73
2024/02/06 00:13:40;;;;;;;22.77;12.18;;;5.20;99.90;;;;;;484998;245;27844;-72
2024/02/06 00:15:43;;;;;;;20.70;10.88;;;5.20;99.90;;;;;;484985;245;27529;-72
2024/02/06 00:17:43;;;;;;;22.85;11.30;;;5.20;99.90;;;;;;485017;245;28116;-74
2024/02/06 00:19:44;;;;;;;21.17;11.38;;;5.20;99.90;;;;;;485097;245;27493;-72
2024/02/06 00:21:45;;;;;;;32.42;12.55;;;5.20;99.90;;;;;;485073;245;27985;-74
2024/02/06 00:23:46;;;;;;;23.70;11.85;;;5.10;99.90;;;;;;485076;245;28016;-72
2024/02/06 00:25:48;;;;;;;21.83;11.90;;;5.10;99.90;;;;;;485016;245;27855;-72
2024/02/06 00:27:49;;;;;;;24.15;11.35;;;5.10;99.90;;;;;;485079;245;27541;-73
2024/02/06 00:29:54;;;;;;;23.05;11.90;;;5.10;99.90;;;;;;485078;245;27394;-72
2024/02/06 00:31:53;;;;;;;25.33;11.90;;;5.10;99.90;;;;;;484783;245;27601;-72
2024/02/06 00:33:54;;;;;;;27.83;12.98;;;5.20;99.90;;;;;;485013;245;27981;-73
2024/02/06 00:35:55;;;;;;;24.45;13.20;;;5.10;99.90;;;;;;485043;245;28028;-73
2024/02/06 00:37:59;;;;;;;25.12;12.35;;;5.10;99.90;;;;;;485062;245;27521;-72
2024/02/06 00:39:58;;;;;;;29.10;11.48;;;5.10;99.90;;;;;;484976;245;27494;-72
2024/02/06 00:41:59;;;;;;;24.50;11.57;;;5.10;99.90;;;;;;485076;245;27607;-73
2024/02/06 00:44:00;;;;;;;29.17;12.52;;;5.10;99.90;;;;;;485073;245;27573;-72
2024/02/06 00:46:02;;;;;;;27.95;11.90;;;5.10;99.90;;;;;;485002;245;28025;-72
2024/02/06 00:48:03;;;;;;;24.27;12.63;;;5.10;99.90;;;;;;485098;245;27445;-72
2024/02/06 00:50:04;;;;;;;20.58;11.27;;;5.10;99.90;;;;;;485062;245;27401;-72
2024/02/06 00:52:05;;;;;;;26.30;11.98;;;5.10;99.90;;;;;;485085;245;27593;-72
2024/02/06 00:54:07;;;;;;;25.37;12.60;;;5.10;99.90;;;;;;485068;245;27609;-72
2024/02/06 00:56:08;;;;;;;30.83;11.70;;;5.10;99.90;;;;;;485019;245;27437;-72
2024/02/06 00:58:09;;;;;;;26.73;11.70;;;5.00;99.90;;;;;;485068;245;28024;-74
2024/02/06 01:00:11;;;;;;;22.35;12.18;;;5.10;99.90;;;;;;485102;245;27507;-72
2024/02/06 01:02:12;;;;;;;31.17;12.05;;;5.10;99.90;;;;;;485084;245;27520;-72
2024/02/06 01:04:13;;;;;;;24.83;12.15;;;5.00;99.90;;;;;;485069;245;27580;-72
2024/02/06 01:06:14;;;;;;;33.05;12.20;;;5.00;99.90;;;;;;485056;245;27496;-72
2024/02/06 01:08:16;;;;;;;25.92;11.70;;;5.00;99.90;;;;;;485029;245;27993;-73
2024/02/06 01:10:17;;;;;;;31.45;13.90;;;5.10;99.90;;;;;;485000;245;28100;-71
2024/02/06 01:12:18;;;;;;;24.35;13.45;;;5.00;99.90;;;;;;485040;245;27528;-72
2024/02/06 01:14:19;;;;;;;27.42;12.20;;;5.00;99.90;;;;;;485092;245;27904;-75
2024/02/06 01:16:21;;;;;;;30.10;14.23;;;5.00;99.90;;;;;;485030;245;27955;-72
2024/02/06 01:18:22;;;;;;;27.17;12.15;;;5.00;99.90;;;;;;485040;245;28096;-72
2024/02/06 01:20:23;;;;;;;24.83;12.82;;;5.00;99.90;;;;;;485068;245;27489;-71
2024/02/06 01:22:24;;;;;;;22.90;13.25;;;5.00;99.90;;;;;;485075;245;27512;-72
2024/02/06 01:24:26;;;;;;;22.75;13.70;;;5.00;99.90;;;;;;485073;245;27525;-72
2024/02/06 01:26:27;;;;;;;22.58;13.13;;;5.00;99.90;;;;;;485028;245;27429;-69
2024/02/06 01:28:28;;;;;;;24.48;12.65;;;4.90;99.90;;;;;;485057;245;28032;-70
2024/02/06 01:30:29;;;;;;;29.90;13.77;;;5.00;99.90;;;;;;485066;245;27566;-70
2024/02/06 01:32:31;;;;;;;24.80;13.00;;;5.00;99.90;;;;;;485067;245;27607;-69
2024/02/06 01:34:32;;;;;;;26.77;13.57;;;5.00;99.90;;;;;;485074;245;27514;-72
2024/02/06 01:36:36;;;;;;;27.08;13.43;;;5.00;99.90;;;;;;485053;245;27502;-72
2024/02/06 01:38:37;;;;;;;25.88;12.85;;;5.00;99.90;;;;;;485025;245;27536;-72
2024/02/06 01:40:39;;;;;;;24.48;12.27;;;5.00;99.90;;;;;;485033;245;27624;-72
2024/02/06 01:42:40;;;;;;;32.25;13.55;;;5.00;99.90;;;;;;485070;245;28085;-74
2024/02/06 01:44:41;;;;;;;30.15;13.88;;;5.00;99.90;;;;;;485050;245;27953;-72
2024/02/06 01:46:42;;;;;;;29.45;13.35;;;5.00;99.90;;;;;;485015;245;28063;-72
2024/02/06 01:48:44;;;;;;;33.47;13.62;;;5.00;99.90;;;;;;485015;245;27477;-72
2024/02/06 01:50:45;;;;;;;28.12;13.30;;;5.00;99.90;;;;;;485047;245;27500;-72
2024/02/06 01:52:46;;;;;;;25.30;13.00;;;5.00;99.90;;;;;;485066;245;27441;-72
2024/02/06 01:54:47;;;;;;;23.48;12.88;;;4.90;99.90;;;;;;485022;245;28027;-72
2024/02/06 01:56:49;;;;;;;29.33;13.73;;;4.90;99.90;;;;;;485001;245;27520;-72
2024/02/06 01:58:50;;;;;;;26.42;12.65;;;4.90;99.90;;;;;;485058;245;27430;-74
2024/02/06 02:00:51;;;;;;;24.30;11.90;;;4.90;99.90;;;;;;485081;245;27489;-72
2024/02/06 02:02:53;;;;;;;25.42;12.07;;;5.00;99.90;;;;;;485062;245;27646;-72
2024/02/06 02:04:54;;;;;;;20.02;11.25;;;5.00;99.90;;;;;;485056;245;28050;-72
2024/02/06 02:06:55;;;;;;;24.27;12.77;;;5.00;99.90;;;;;;485043;245;27627;-73
2024/02/06 02:08:56;;;;;;;25.88;12.45;;;5.00;99.90;;;;;;485069;245;27620;-74
2024/02/06 02:10:57;;;;;;;26.65;12.98;;;5.00;99.90;;;;;;485033;245;27441;-72
2024/02/06 02:12:59;;;;;;;29.05;13.30;;;4.90;99.90;;;;;;485022;245;27472;-72
2024/02/06 02:15:00;;;;;;;25.45;12.32;;;5.00;99.90;;;;;;485057;245;28434;-72
2024/02/06 02:17:01;;;;;;;30.90;12.48;;;4.90;99.90;;;;;;485026;245;27953;-72
2024/02/06 02:19:02;;;;;;;23.87;12.15;;;4.90;99.90;;;;;;485076;245;27564;-73
2024/02/06 02:21:04;;;;;;;24.77;12.02;;;4.90;99.90;;;;;;485064;245;27474;-72
2024/02/06 02:23:05;;;;;;;26.15;12.70;;;4.90;99.90;;;;;;485026;245;27433;-72
2024/02/06 02:25:06;;;;;;;25.95;13.10;;;4.90;99.90;;;;;;485066;245;27573;-74
2024/02/06 02:27:08;;;;;;;33.10;13.02;;;4.80;99.90;;;;;;485030;245;27938;-72
2024/02/06 02:29:09;;;;;;;28.05;12.23;;;4.90;99.90;;;;;;485075;245;27524;-72
2024/02/06 02:31:10;;;;;;;21.90;11.82;;;4.90;99.90;;;;;;485015;245;27400;-72
2024/02/06 02:33:11;;;;;;;25.83;12.98;;;4.90;99.90;;;;;;485068;245;27476;-72
2024/02/06 02:35:14;;;;;;;24.75;12.57;;;4.90;99.90;;;;;;485064;245;27623;-73
2024/02/06 02:37:14;;;;;;;30.48;13.15;;;4.90;99.90;;;;;;484866;245;28003;-72
2024/02/06 02:39:15;;;;;;;29.17;14.07;;;4.90;99.90;;;;;;485002;245;28104;-72
2024/02/06 02:41:16;;;;;;;25.48;13.40;;;4.90;99.90;;;;;;485066;245;27552;-72
2024/02/06 02:43:18;;;;;;;24.00;12.37;;;4.90;99.90;;;;;;485049;245;27596;-72
2024/02/06 02:45:19;;;;;;;30.15;13.00;;;4.90;99.90;;;;;;485082;245;27564;-72
2024/02/06 02:47:20;;;;;;;25.25;13.75;;;4.90;99.90;;;;;;485012;245;27484;-72
2024/02/06 02:49:21;;;;;;;29.87;13.77;;;4.90;99.90;;;;;;485050;245;28099;-72
2024/02/06 02:51:23;;;;;;;27.77;12.60;;;4.90;99.90;;;;;;485066;245;27913;-73
2024/02/06 02:53:24;;;;;;;25.83;14.02;;;4.90;99.90;;;;;;485034;245;27495;-72
2024/02/06 02:55:25;;;;;;;27.50;13.30;;;5.00;99.90;;;;;;485046;245;27548;-72
2024/02/06 02:57:26;;;;;;;35.08;14.52;;;5.00;99.90;;;;;;485001;245;27481;-72
2024/02/06 02:59:28;;;;;;;35.78;14.30;;;4.90;99.90;;;;;;485090;245;27536;-72
2024/02/06 03:01:30;;;;;;;33.03;15.13;;;4.90;99.90;;;;;;485095;245;28114;-72
2024/02/06 03:03:30;;;;;;;28.25;14.13;;;4.90;99.90;;;;;;484872;245;27988;-72
2024/02/06 03:05:31;;;;;;;32.92;14.75;;;4.90;99.90;;;;;;485048;245;27514;-73
2024/02/06 03:07:33;;;;;;;29.20;14.68;;;4.90;99.90;;;;;;485061;245;27537;-74
2024/02/06 03:09:34;;;;;;;28.92;14.30;;;4.90;99.90;;;;;;485077;245;27489;-72
2024/02/06 03:11:36;;;;;;;31.65;14.40;;;4.90;99.90;;;;;;485056;245;27565;-72
2024/02/06 03:13:37;;;;;;;31.80;15.35;;;4.90;99.90;;;;;;485060;245;28033;-72
2024/02/06 03:15:38;;;;;;;27.92;14.13;;;4.90;99.90;;;;;;485007;245;28105;-72
2024/02/06 03:17:39;;;;;;;28.17;14.35;;;4.90;99.90;;;;;;485088;245;27616;-73
2024/02/06 03:19:40;;;;;;;34.17;13.70;;;4.90;99.90;;;;;;485060;245;27486;-72
2024/02/06 03:21:42;;;;;;;29.35;14.20;;;4.90;99.90;;;;;;485082;245;27517;-72
2024/02/06 03:23:43;;;;;;;31.55;13.50;;;4.90;99.90;;;;;;485076;245;27579;-72
2024/02/06 03:25:44;;;;;;;30.02;13.45;;;4.90;99.90;;;;;;485077;245;27950;-72
2024/02/06 03:27:45;;;;;;;25.23;14.02;;;4.90;99.90;;;;;;485096;245;28036;-72
2024/02/06 03:29:47;;;;;;;31.90;14.87;;;4.80;99.90;;;;;;485100;245;27466;-72
2024/02/06 03:31:48;;;;;;;33.88;13.52;;;4.90;99.90;;;;;;485064;245;27543;-72
2024/02/06 03:33:49;;;;;;;25.73;14.02;;;4.90;99.90;;;;;;485123;245;28207;-74
2024/02/06 03:35:51;;;;;;;26.60;13.88;;;4.90;99.90;;;;;;485057;245;27848;-72
2024/02/06 03:37:52;;;;;;;30.58;13.45;;;4.80;99.90;;;;;;485104;245;27567;-73
2024/02/06 03:39:53;;;;;;;23.20;11.43;;;4.80;99.90;;;;;;485077;245;27479;-72
2024/02/06 03:41:54;;;;;;;28.50;13.43;;;4.80;99.90;;;;;;485117;245;28071;-72
2024/02/06 03:43:56;;;;;;;25.92;12.82;;;4.80;99.90;;;;;;484993;245;27638;-72
2024/02/06 03:45:57;;;;;;;28.15;12.93;;;4.80;99.90;;;;;;485066;245;27553;-71
2024/02/06 03:47:58;;;;;;;30.40;12.57;;;4.80;99.90;;;;;;485066;245;27536;-72
2024/02/06 03:49:59;;;;;;;35.15;12.75;;;4.90;99.90;;;;;;485110;245;27888;-72
2024/02/06 03:52:01;;;;;;;25.45;12.48;;;4.90;99.90;;;;;;485053;245;28011;-71
2024/02/06 03:54:02;;;;;;;27.83;12.37;;;4.90;99.90;;;;;;485054;245;27993;-72
2024/02/06 03:56:03;;;;;;;24.23;12.93;;;4.80;99.90;;;;;;485025;245;27477;-71
2024/02/06 03:58:04;;;;;;;23.27;13.30;;;4.80;99.90;;;;;;485100;245;27528;-72
2024/02/06 04:00:06;;;;;;;27.90;14.10;;;4.80;99.90;;;;;;485129;245;27539;-73
2024/02/06 04:02:07;;;;;;;26.40;13.90;;;4.80;99.90;;;;;;485123;245;27486;-72
2024/02/06 04:04:08;;;;;;;24.90;14.27;;;4.80;99.90;;;;;;485116;245;27994;-72
2024/02/06 04:06:09;;;;;;;31.23;15.27;;;4.80;99.90;;;;;;485040;245;28752;-72
2024/02/06 04:08:11;;;;;;;28.73;13.95;;;4.80;99.90;;;;;;485130;245;27548;-72
2024/02/06 04:10:12;;;;;;;32.42;15.45;;;4.80;99.90;;;;;;484954;245;27545;-73
2024/02/06 04:12:13;;;;;;;25.15;13.98;;;4.80;99.90;;;;;;485077;245;27493;-72
2024/02/06 04:14:14;;;;;;;28.48;13.60;;;4.80;99.90;;;;;;485076;245;27564;-72
2024/02/06 04:16:17;;;;;;;31.45;14.23;;;4.80;99.90;;;;;;485045;245;28008;-73
2024/02/06 04:18:17;;;;;;;25.42;12.90;;;4.80;99.90;;;;;;485014;245;27949;-72
2024/02/06 04:20:18;;;;;;;24.55;13.02;;;4.80;99.90;;;;;;484956;245;27527;-72
2024/02/06 04:22:19;;;;;;;23.42;12.80;;;4.80;99.90;;;;;;485013;245;27489;-71
2024/02/06 04:24:21;;;;;;;19.40;12.40;;;4.80;99.90;;;;;;485070;245;27516;-71
2024/02/06 04:26:22;;;;;;;20.83;11.88;;;4.80;99.90;;;;;;485018;245;27517;-73
2024/02/06 04:28:23;;;;;;;28.73;12.73;;;4.80;99.90;;;;;;485068;245;27954;-72
2024/02/06 04:30:25;;;;;;;19.87;11.90;;;4.80;99.90;;;;;;485062;245;28090;-72
2024/02/06 04:32:26;;;;;;;23.70;12.98;;;4.80;99.90;;;;;;485035;245;27572;-71
2024/02/06 04:34:30;;;;;;;22.45;12.60;;;4.80;99.90;;;;;;485093;245;27570;-72
2024/02/06 04:36:31;;;;;;;24.10;12.98;;;4.80;99.90;;;;;;485046;245;27477;-72
2024/02/06 04:38:32;;;;;;;28.62;12.75;;;4.80;99.90;;;;;;485063;245;27541;-73
2024/02/06 04:40:34;;;;;;;23.83;11.32;;;4.80;99.90;;;;;;485043;245;27480;-72
2024/02/06 04:42:35;;;;;;;24.15;11.82;;;4.70;99.90;;;;;;485037;245;27524;-72
2024/02/06 04:44:36;;;;;;;21.30;10.88;;;4.80;99.90;;;;;;485123;245;28037;-74
2024/02/06 04:46:38;;;;;;;24.35;12.50;;;4.70;99.90;;;;;;484991;245;28077;-72
2024/02/06 04:48:39;;;;;;;22.40;12.00;;;4.80;99.90;;;;;;485064;245;27549;-72
2024/02/06 04:50:40;;;;;;;22.27;11.27;;;4.70;99.90;;;;;;485042;245;27531;-72
2024/02/06 04:52:41;;;;;;;19.65;11.52;;;4.70;99.90;;;;;;485064;245;27512;-72
2024/02/06 04:54:42;;;;;;;21.95;10.98;;;4.70;99.90;;;;;;485071;245;27542;-74
2024/02/06 04:56:44;;;;;;;20.92;11.65;;;4.70;99.90;;;;;;485043;245;28029;-72
2024/02/06 04:58:45;;;;;;;16.92;9.73;;;4.70;99.90;;;;;;485023;245;28055;-72
2024/02/06 05:00:46;;;;;;;17.23;10.25;;;4.80;99.90;;;;;;485067;245;27537;-72
2024/02/06 05:02:47;;;;;;;24.58;11.88;;;4.80;99.90;;;;;;485063;245;27491;-72
2024/02/06 05:04:49;;;;;;;21.02;11.60;;;4.80;99.90;;;;;;485037;245;27560;-72
2024/02/06 05:06:50;;;;;;;20.08;11.05;;;4.80;99.90;;;;;;484993;245;27604;-72
2024/02/06 05:08:51;;;;;;;18.40;11.57;;;4.80;99.90;;;;;;485050;245;27440;-72
2024/02/06 05:10:53;;;;;;;25.02;12.63;;;4.90;99.90;;;;;;485082;245;28076;-74
2024/02/06 05:12:54;;;;;;;22.87;12.88;;;4.80;99.90;;;;;;485012;245;27477;-72
2024/02/06 05:14:55;;;;;;;24.63;13.15;;;4.80;99.90;;;;;;485063;245;27698;-72
2024/02/06 05:16:56;;;;;;;21.92;12.60;;;4.80;99.90;;;;;;484976;245;27470;-72
2024/02/06 05:18:57;;;;;;;26.60;13.48;;;4.80;99.90;;;;;;485085;245;27564;-72
2024/02/06 05:20:59;;;;;;;19.08;12.85;;;4.80;99.90;;;;;;485067;245;27643;-73
2024/02/06 05:23:00;;;;;;;20.52;12.65;;;4.80;99.90;;;;;;485063;245;28032;-72
2024/02/06 05:25:01;;;;;;;24.33;13.73;;;4.80;99.90;;;;;;485058;245;27615;-72
2024/02/06 05:27:05;;;;;;;19.55;12.20;;;4.80;99.90;;;;;;485031;245;27434;-72
2024/02/06 05:29:07;;;;;;;21.83;13.55;;;4.80;99.90;;;;;;485115;245;28023;-74
2024/02/06 05:31:08;;;;;;;21.45;13.62;;;4.80;99.90;;;;;;485046;245;28068;-72
2024/02/06 05:33:09;;;;;;;25.15;13.60;;;4.80;99.90;;;;;;484987;245;27452;-72
2024/02/06 05:35:11;;;;;;;26.83;12.63;;;4.80;99.90;;;;;;484976;245;27492;-72
2024/02/06 05:37:12;;;;;;;25.50;13.13;;;4.80;99.90;;;;;;484982;245;27390;-72
2024/02/06 05:39:13;;;;;;;26.27;13.25;;;4.80;99.90;;;;;;485029;245;27539;-72
2024/02/06 05:41:14;;;;;;;30.42;12.85;;;4.80;99.90;;;;;;485027;245;27497;-72
2024/02/06 05:43:16;;;;;;;22.23;12.85;;;4.80;99.90;;;;;;485021;245;28036;-73
2024/02/06 05:45:17;;;;;;;21.52;13.38;;;4.80;99.90;;;;;;485062;245;27449;-74
2024/02/06 05:47:18;;;;;;;22.62;13.45;;;4.80;99.90;;;;;;484954;245;27667;-72
2024/02/06 05:49:19;;;;;;;28.30;12.90;;;4.80;99.90;;;;;;485052;245;27619;-72
2024/02/06 05:51:21;;;;;;;24.25;12.63;;;4.80;99.90;;;;;;485073;245;27505;-72
2024/02/06 05:53:22;;;;;;;28.42;12.98;;;4.80;99.90;;;;;;485036;245;27429;-72
2024/02/06 05:55:23;;;;;;;19.15;12.35;;;4.80;99.90;;;;;;484844;245;27903;-74
2024/02/06 05:57:24;;;;;;;23.58;12.30;;;4.90;99.90;;;;;;485022;245;27493;-72
2024/02/06 05:59:27;;;;;;;18.70;12.63;;;4.90;99.90;;;;;;485049;245;27537;-72
2024/02/06 06:01:27;;;;;;;19.35;12.98;;;4.90;99.90;;;;;;484912;245;27569;-72
2024/02/06 06:03:28;;;;;;;22.95;12.55;;;4.80;99.90;;;;;;485070;245;27873;-72
2024/02/06 06:05:29;;;;;;;25.95;12.50;;;4.80;99.90;;;;;;484966;245;27615;-72
2024/02/06 06:07:31;;;;;;;20.77;12.05;;;4.90;99.90;;;;;;484959;245;27984;-72
2024/02/06 06:09:32;;;;;;;24.80;13.20;;;4.90;99.90;;;;;;485010;245;27545;-72
2024/02/06 06:11:33;;;;;;;22.42;12.85;;;4.90;99.90;;;;;;485063;245;27533;-73
2024/02/06 06:13:34;;;;;;;19.20;12.13;;;4.90;99.90;;;;;;485036;245;27568;-72
2024/02/06 06:15:36;;;;;;;18.60;12.88;;;4.80;99.90;;;;;;485026;245;27537;-72
2024/02/06 06:17:37;;;;;;;18.75;12.40;;;4.90;99.90;;;;;;485050;245;27500;-72
2024/02/06 06:19:38;;;;;;;22.17;12.02;;;4.80;99.90;;;;;;485042;245;27912;-73
2024/02/06 06:21:39;;;;;;;18.92;12.10;;;4.90;99.90;;;;;;485066;245;27529;-74
2024/02/06 06:23:41;;;;;;;18.92;12.00;;;4.90;99.90;;;;;;485036;245;27588;-72
2024/02/06 06:25:42;;;;;;;22.48;12.95;;;4.90;99.90;;;;;;484999;245;27639;-72
2024/02/06 06:27:43;;;;;;;23.02;14.68;;;4.90;99.90;;;;;;485065;245;27404;-72
2024/02/06 06:29:48;;;;;;;23.92;13.55;;;4.80;99.90;;;;;;485083;245;27501;-72
2024/02/06 06:31:49;;;;;;;24.55;13.18;;;4.90;99.90;;;;;;485079;245;27521;-72
2024/02/06 06:33:50;;;;;;;24.75;12.55;;;4.90;99.90;;;;;;485024;245;27541;-72
2024/02/06 06:35:51;;;;;;;22.20;12.57;;;4.80;99.90;;;;;;485016;245;27613;-72
2024/02/06 06:37:53;;;;;;;22.40;12.35;;;4.90;99.90;;;;;;485076;245;28061;-74
2024/02/06 06:39:54;;;;;;;18.98;11.90;;;4.90;99.90;;;;;;485084;245;27560;-72
2024/02/06 06:41:55;;;;;;;18.05;11.18;;;4.80;99.90;;;;;;485058;245;27498;-72
2024/02/06 06:43:57;;;;;;;20.02;11.70;;;4.90;99.90;;;;;;485093;245;27583;-73
2024/02/06 06:45:58;;;;;;;18.30;11.35;;;4.90;99.90;;;;;;485052;245;28014;-74
2024/02/06 06:47:59;;;;;;;18.65;11.02;;;4.90;99.90;;;;;;485076;245;27984;-72
2024/02/06 06:50:01;;;;;;;17.10;11.57;;;4.90;99.90;;;;;;485076;245;27557;-72
2024/02/06 06:52:02;;;;;;;22.75;11.00;;;4.90;99.90;;;;;;485088;245;27605;-72
2024/02/06 06:54:04;;;;;;;19.30;11.43;;;4.90;99.90;;;;;;485119;245;27573;-72
2024/02/06 06:56:04;;;;;;;22.20;12.05;;;4.90;99.90;;;;;;485004;245;27525;-72
2024/02/06 06:58:05;;;;;;;17.83;11.38;;;4.90;99.90;;;;;;485037;245;27958;-71
2024/02/06 07:00:07;;;;;;;23.90;10.98;;;4.90;99.90;;;;;;485071;245;27516;-72
2024/02/06 07:02:08;;;;;;;23.52;10.95;;;4.90;99.90;;;;;;485076;245;27642;-73
2024/02/06 07:04:10;;;;;;;21.33;11.15;;;4.90;99.90;;;;;;485062;245;27545;-72
2024/02/06 07:06:10;;;;;;;17.90;10.40;;;4.90;99.90;;;;;;484977;245;27541;-73
2024/02/06 07:08:12;;;;;;;24.87;12.63;;;4.90;99.90;;;;;;485066;245;27635;-72
2024/02/06 07:10:13;;;;;;;19.27;10.93;;;4.90;99.90;;;;;;485075;245;28040;-72
2024/02/06 07:12:14;;;;;;;15.98;10.15;;;4.90;99.90;;;;;;485083;245;27529;-73
2024/02/06 07:14:16;;;;;;;19.33;10.80;;;4.90;99.90;;;;;;485057;245;27501;-72
2024/02/06 07:16:17;;;;;;;18.75;10.93;;;4.90;99.90;;;;;;485031;245;27525;-72
2024/02/06 07:18:18;;;;;;;21.02;10.90;;;4.90;99.90;;;;;;485060;245;27913;-74
2024/02/06 07:20:19;;;;;;;19.02;9.82;;;4.90;99.90;;;;;;485056;245;27455;-72
2024/02/06 07:22:21;;;;;;;16.48;11.00;;;4.90;99.90;;;;;;485052;245;28214;-72
2024/02/06 07:24:22;;;;;;;13.40;9.57;;;4.90;99.90;;;;;;485042;245;27869;-72
2024/02/06 07:26:23;;;;;;;14.73;8.65;;;4.90;99.90;;;;;;484993;245;27437;-73
2024/02/06 07:28:24;;;;;;;16.62;10.70;;;4.90;99.90;;;;;;485097;245;27564;-74
2024/02/06 07:30:26;;;;;;;17.62;9.52;;;4.90;99.90;;;;;;485079;245;27464;-71
2024/02/06 07:32:27;;;;;;;15.38;9.23;;;4.90;99.90;;;;;;485038;245;27561;-72
2024/02/06 07:34:28;;;;;;;10.50;7.97;;;4.90;99.90;;;;;;485058;245;27398;-72
2024/02/06 07:36:30;;;;;;;20.33;9.45;;;4.90;99.90;;;;;;485011;245;28150;-72
2024/02/06 07:38:31;;;;;;;17.33;8.52;;;4.90;99.90;;;;;;485087;245;28032;-73
2024/02/06 07:40:32;;;;;;;12.85;8.60;;;4.90;99.90;;;;;;485077;245;27486;-72
2024/02/06 07:42:33;;;;;;;14.25;9.25;;;4.90;99.90;;;;;;485050;245;27525;-72
2024/02/06 07:44:34;;;;;;;21.27;8.57;;;5.00;99.90;;;;;;485078;245;27942;-74
2024/02/06 07:46:36;;;;;;;13.85;9.05;;;5.00;99.90;;;;;;485016;245;27493;-72
2024/02/06 07:48:37;;;;;;;14.38;8.32;;;5.00;99.90;;;;;;485064;245;27553;-72
2024/02/06 07:50:38;;;;;;;14.38;8.48;;;5.00;99.90;;;;;;485063;245;27540;-72
2024/02/06 07:52:41;;;;;;;13.60;7.80;;;5.00;99.90;;;;;;485058;245;28112;-72
2024/02/06 07:54:42;;;;;;;12.65;8.73;;;5.00;99.90;;;;;;484982;245;27556;-75
2024/02/06 07:56:42;;;;;;;14.85;7.85;;;5.00;99.90;;;;;;484983;245;27486;-72
2024/02/06 07:58:43;;;;;;;13.70;8.52;;;5.00;99.90;;;;;;485061;245;27512;-73
2024/02/06 08:00:45;;;;;;;14.93;8.10;;;5.00;99.90;;;;;;485058;245;27579;-72
2024/02/06 08:02:46;;;;;;;11.75;8.18;;;5.00;99.90;;;;;;485118;245;27533;-69
2024/02/06 08:04:48;;;;;;;13.50;8.85;;;5.00;99.90;;;;;;485132;245;27608;-72
2024/02/06 08:06:48;;;;;;;13.23;8.45;;;5.00;99.90;;;;;;484953;245;27938;-72
2024/02/06 08:08:49;;;;;;;15.75;8.07;;;5.00;99.90;;;;;;485088;245;28033;-72
2024/02/06 08:10:51;;;;;;;12.23;7.90;;;5.00;99.90;;;;;;485097;245;27521;-74
2024/02/06 08:12:52;;;;;;;15.30;7.72;;;5.00;99.90;;;;;;485090;245;27497;-72
2024/02/06 08:14:53;;;;;;;13.38;8.48;;;5.00;99.90;;;;;;485093;245;27561;-72
2024/02/06 08:16:55;;;;;;;14.73;8.38;;;5.00;99.90;;;;;;485000;245;27481;-72
2024/02/06 08:18:56;;;;;;;12.73;7.95;;;5.00;99.90;;;;;;485066;245;28069;-72
2024/02/06 08:20:57;;;;;;;13.82;7.80;;;5.00;99.90;;;;;;485099;245;28007;-73
2024/02/06 08:22:58;;;;;;;16.55;8.02;;;5.10;99.90;;;;;;485108;245;27490;-71
2024/02/06 08:25:00;;;;;;;15.00;7.97;;;5.10;99.90;;;;;;485098;245;27537;-72
2024/02/06 08:27:01;;;;;;;14.65;8.15;;;5.10;99.90;;;;;;485045;245;27521;-72
2024/02/06 08:29:02;;;;;;;11.25;7.30;;;5.10;99.90;;;;;;485115;245;27533;-72
2024/02/06 08:31:04;;;;;;;9.95;7.40;;;5.10;99.90;;;;;;485089;245;27561;-72
2024/02/06 08:33:05;;;;;;;13.95;8.20;;;5.10;99.90;;;;;;485015;245;27610;-72
2024/02/06 08:35:06;;;;;;;9.15;6.85;;;5.10;99.90;;;;;;485029;245;28031;-73
2024/02/06 08:37:07;;;;;;;13.62;6.47;;;5.10;99.90;;;;;;485011;245;28176;-74
2024/02/06 08:39:09;;;;;;;10.07;7.32;;;5.10;99.90;;;;;;485072;245;27503;-72
2024/02/06 08:41:10;;;;;;;9.52;7.00;;;5.10;99.90;;;;;;485073;245;27521;-73
2024/02/06 08:43:11;;;;;;;9.15;6.45;;;5.20;99.90;;;;;;484961;245;27490;-72
2024/02/06 08:45:13;;;;;;;13.25;7.45;;;5.20;99.90;;;;;;485043;245;27529;-72
2024/02/06 08:47:13;;;;;;;10.10;7.35;;;5.10;99.90;;;;;;485019;245;27611;-73
2024/02/06 08:49:15;;;;;;;12.07;6.65;;;5.10;99.90;;;;;;485080;245;27914;-71
2024/02/06 08:51:16;;;;;;;11.80;7.03;;;5.20;99.90;;;;;;485076;245;28112;-72
2024/02/06 08:53:17;;;;;;;12.15;6.55;;;5.20;99.90;;;;;;485026;245;27563;-72
2024/02/06 08:55:18;;;;;;;9.60;6.68;;;5.20;99.90;;;;;;485055;245;27430;-72
2024/02/06 08:57:20;;;;;;;9.63;6.50;;;5.20;99.90;;;;;;485021;245;27566;-73
2024/02/06 08:59:21;;;;;;;10.77;6.35;;;5.20;99.90;;;;;;485036;245;27496;-72
2024/02/06 09:01:22;;;;;;;10.70;5.85;;;5.20;99.90;;;;;;485039;245;27508;-72
2024/02/06 09:03:23;;;;;;;9.65;6.55;;;5.20;99.90;;;;;;485065;245;27520;-74
2024/02/06 09:05:25;;;;;;;9.18;5.95;;;5.20;99.90;;;;;;485089;245;28048;-72
2024/02/06 09:07:26;;;;;;;8.65;5.95;;;5.20;99.90;;;;;;485016;245;28105;-73
2024/02/06 09:09:27;;;;;;;8.30;6.37;;;5.30;99.90;;;;;;485044;245;27481;-72
2024/02/06 09:11:28;;;;;;;11.88;6.65;;;5.30;99.90;;;;;;485016;245;27525;-72
2024/02/06 09:13:30;;;;;;;13.23;7.05;;;5.30;99.90;;;;;;485061;245;27628;-75
2024/02/06 09:15:31;;;;;;;9.40;6.07;;;5.30;99.90;;;;;;485017;245;27486;-72
2024/02/06 09:17:32;;;;;;;9.80;5.68;;;5.20;99.90;;;;;;485041;245;27492;-72
2024/02/06 09:19:34;;;;;;;10.35;6.93;;;5.30;99.90;;;;;;485036;245;27973;-72
2024/02/06 09:21:35;;;;;;;10.77;6.97;;;5.30;99.90;;;;;;485052;245;28023;-72
2024/02/06 09:23:36;;;;;;;14.65;6.75;;;5.30;99.90;;;;;;485018;245;27650;-73
2024/02/06 09:25:38;;;;;;;10.52;5.75;;;5.30;99.90;;;;;;485039;245;27491;-72
2024/02/06 09:27:39;;;;;;;11.07;6.05;;;5.40;99.90;;;;;;484992;245;27529;-72
2024/02/06 09:29:40;;;;;;;10.02;5.87;;;5.40;99.90;;;;;;485053;245;27448;-74
2024/02/06 09:31:41;;;;;;;8.98;5.82;;;5.40;99.90;;;;;;485085;245;27509;-72
2024/02/06 09:33:42;;;;;;;14.27;7.00;;;5.40;99.90;;;;;;485049;245;28118;-72
2024/02/06 09:35:44;;;;;;;12.43;6.00;;;5.40;99.90;;;;;;485013;245;28074;-71
2024/02/06 09:37:45;;;;;;;9.73;6.95;;;5.50;99.90;;;;;;485053;245;27512;-72
2024/02/06 09:39:46;;;;;;;8.75;5.75;;;5.50;99.90;;;;;;485092;245;27525;-74
2024/02/06 09:41:47;;;;;;;10.35;5.60;;;5.50;99.90;;;;;;485086;245;27561;-72
2024/02/06 09:43:49;;;;;;;10.07;6.00;;;5.50;99.90;;;;;;485067;245;27620;-73
2024/02/06 09:45:50;;;;;;;16.30;6.43;;;5.50;99.90;;;;;;485011;245;27517;-72
2024/02/06 09:47:51;;;;;;;9.07;5.43;;;5.50;99.90;;;;;;485109;245;27969;-72
2024/02/06 09:49:52;;;;;;;9.45;5.50;;;5.60;99.90;;;;;;485051;245;28095;-73
2024/02/06 09:51:54;;;;;;;13.02;6.10;;;5.60;99.90;;;;;;485073;245;27502;-72
2024/02/06 09:53:55;;;;;;;12.10;6.57;;;5.60;99.90;;;;;;485048;245;27519;-72
2024/02/06 09:55:56;;;;;;;11.32;5.85;;;5.60;99.90;;;;;;485046;245;27819;-72
2024/02/06 09:57:57;;;;;;;10.25;5.50;;;5.70;99.90;;;;;;485053;245;27410;-72
2024/02/06 09:59:59;;;;;;;10.38;5.70;;;5.70;99.90;;;;;;485069;245;27532;-72
2024/02/06 10:02:00;;;;;;;9.02;6.00;;;5.70;99.90;;;;;;485044;245;28007;-72
2024/02/06 10:04:01;;;;;;;11.00;5.82;;;5.70;99.90;;;;;;485056;245;28035;-72
2024/02/06 10:06:02;;;;;;;8.55;5.68;;;5.60;99.90;;;;;;485054;245;27540;-74
2024/02/06 10:08:04;;;;;;;10.57;5.80;;;5.60;99.90;;;;;;485068;245;27482;-72
2024/02/06 10:10:05;;;;;;;9.38;5.28;;;5.70;99.90;;;;;;485059;245;27528;-73
2024/02/06 10:12:06;;;;;;;8.43;5.82;;;5.70;99.90;;;;;;485082;245;27481;-72
2024/02/06 10:14:08;;;;;;;7.72;5.55;;;5.70;99.90;;;;;;485094;245;27486;-72
2024/02/06 10:16:09;;;;;;;9.15;5.53;;;5.70;99.90;;;;;;485051;245;28197;-73
2024/02/06 10:18:10;;;;;;;11.23;5.70;;;5.70;99.90;;;;;;485080;245;27989;-72
2024/02/06 10:20:11;;;;;;;7.62;5.25;;;5.70;99.90;;;;;;485063;245;27513;-72
2024/02/06 10:22:12;;;;;;;7.70;5.45;;;5.80;99.90;;;;;;485099;245;27627;-74
2024/02/06 10:24:14;;;;;;;9.38;5.28;;;5.80;99.90;;;;;;485089;245;27560;-72
2024/02/06 10:26:15;;;;;;;9.63;5.68;;;5.90;99.90;;;;;;485036;245;27529;-72